キエフ/ボリースピリ の空港の天気 - METARとTAF

ボリースピリ国際空港(キエフ) ( UKBB / KBP ) - ウクライナ ボリスピリ (キエフ近郊)
飛行場実況気象(Metar)
観測時間04/27 19:30 EEST (04/27 16:30 UTC)
風向・風速南 6m/s
視程10km以上
天気現象
なし
気温19℃
湿度37%
気圧1014hPa
METARUKBB 271630Z 19006MPS CAVOK 19/04 Q1014 R88/D NOSIG
過去の天気等 Google飛行場航空写真 Wunderground天気予報

過去48時間のMETAR

飛行場予報(TAF)
発表時間: 4/27 14:00 EEST (4/27 11:00 UTC)
予報対象時間: 27日15時 EEST ~ 28日15時 EEST
風向・風速南 6m/s 瞬間風速 12m/s
視程10km以上
全天の4割程度の雲 雲底高度 910m
27日15時 EEST ~ 27日19時 EEST に一時的に
風向・風速南南西 10m/s 瞬間風速 16m/s
28日2時 EEST ~ 28日9時 EEST に一時的に
全天の4割程度の積乱雲 雲底高度 610m
28日11時 EEST ~ 28日15時 EEST に一時的に
風向・風速南 9m/s 瞬間風速 14m/s
TAF UKBB 271100Z 2712/2812 19006G12MPS 9999 SCT030
TEMPO 2712/2716 20010G16MPS
TEMPO 2723/2806 SCT020CB
TEMPO 2808/2812 19009G14MPS